sensor_id;sensor_type;location;lat;lon;timestamp;P1;durP1;ratioP1;P2;durP2;ratioP2
61085;SDS011;46967;48.876;2.136;2023-02-23T00:01:20;16.02;;;9.32;;
61085;SDS011;46967;48.876;2.136;2023-02-23T00:03:50;18.33;;;9.98;;
61085;SDS011;46967;48.876;2.136;2023-02-23T00:06:19;13.50;;;9.00;;
61085;SDS011;46967;48.876;2.136;2023-02-23T00:08:44;18.80;;;9.13;;
61085;SDS011;46967;48.876;2.136;2023-02-23T00:11:12;14.93;;;10.27;;
61085;SDS011;46967;48.876;2.136;2023-02-23T00:13:38;17.67;;;9.85;;
61085;SDS011;46967;48.876;2.136;2023-02-23T00:16:09;18.10;;;9.88;;
61085;SDS011;46967;48.876;2.136;2023-02-23T00:18:46;16.00;;;9.90;;
61085;SDS011;46967;48.876;2.136;2023-02-23T00:21:18;15.00;;;9.57;;
61085;SDS011;46967;48.876;2.136;2023-02-23T00:23:49;17.08;;;9.05;;
61085;SDS011;46967;48.876;2.136;2023-02-23T00:26:22;17.90;;;9.93;;
61085;SDS011;46967;48.876;2.136;2023-02-23T00:28:48;14.55;;;9.05;;
61085;SDS011;46967;48.876;2.136;2023-02-23T00:31:17;14.23;;;9.00;;
61085;SDS011;46967;48.876;2.136;2023-02-23T00:33:47;14.25;;;9.20;;
61085;SDS011;46967;48.876;2.136;2023-02-23T00:36:15;16.42;;;8.75;;
61085;SDS011;46967;48.876;2.136;2023-02-23T00:38:40;14.95;;;8.43;;
61085;SDS011;46967;48.876;2.136;2023-02-23T00:41:10;13.18;;;8.02;;
61085;SDS011;46967;48.876;2.136;2023-02-23T00:43:40;17.38;;;8.75;;
61085;SDS011;46967;48.876;2.136;2023-02-23T00:46:15;15.20;;;8.57;;
61085;SDS011;46967;48.876;2.136;2023-02-23T00:48:42;15.73;;;8.70;;
61085;SDS011;46967;48.876;2.136;2023-02-23T00:51:09;15.38;;;7.95;;
61085;SDS011;46967;48.876;2.136;2023-02-23T00:53:35;13.18;;;8.38;;
61085;SDS011;46967;48.876;2.136;2023-02-23T00:56:02;12.05;;;8.10;;
61085;SDS011;46967;48.876;2.136;2023-02-23T00:58:29;11.82;;;7.47;;
61085;SDS011;46967;48.876;2.136;2023-02-23T01:00:55;14.32;;;7.50;;
61085;SDS011;46967;48.876;2.136;2023-02-23T01:03:23;13.93;;;6.93;;
61085;SDS011;46967;48.876;2.136;2023-02-23T01:05:49;12.50;;;7.38;;
61085;SDS011;46967;48.876;2.136;2023-02-23T01:08:15;10.05;;;6.35;;
61085;SDS011;46967;48.876;2.136;2023-02-23T01:10:41;13.57;;;6.72;;
61085;SDS011;46967;48.876;2.136;2023-02-23T01:13:08;16.67;;;6.80;;
61085;SDS011;46967;48.876;2.136;2023-02-23T01:15:39;13.85;;;6.22;;
61085;SDS011;46967;48.876;2.136;2023-02-23T01:18:06;12.10;;;6.63;;
61085;SDS011;46967;48.876;2.136;2023-02-23T01:20:33;12.15;;;6.45;;
61085;SDS011;46967;48.876;2.136;2023-02-23T01:23:00;11.15;;;5.85;;
61085;SDS011;46967;48.876;2.136;2023-02-23T01:25:26;11.48;;;6.03;;
61085;SDS011;46967;48.876;2.136;2023-02-23T01:27:53;18.33;;;6.47;;
61085;SDS011;46967;48.876;2.136;2023-02-23T01:30:19;12.35;;;5.93;;
61085;SDS011;46967;48.876;2.136;2023-02-23T01:32:45;19.13;;;6.05;;
61085;SDS011;46967;48.876;2.136;2023-02-23T01:35:10;10.13;;;5.78;;
61085;SDS011;46967;48.876;2.136;2023-02-23T01:37:37;9.27;;;5.30;;
61085;SDS011;46967;48.876;2.136;2023-02-23T01:40:05;9.80;;;5.60;;
61085;SDS011;46967;48.876;2.136;2023-02-23T01:42:37;10.32;;;5.60;;
61085;SDS011;46967;48.876;2.136;2023-02-23T01:45:20;12.50;;;5.55;;
61085;SDS011;46967;48.876;2.136;2023-02-23T01:47:53;14.82;;;5.88;;
61085;SDS011;46967;48.876;2.136;2023-02-23T01:50:21;13.27;;;5.97;;
61085;SDS011;46967;48.876;2.136;2023-02-23T01:52:50;12.15;;;5.82;;
61085;SDS011;46967;48.876;2.136;2023-02-23T01:55:16;11.70;;;5.50;;
61085;SDS011;46967;48.876;2.136;2023-02-23T01:57:48;12.68;;;5.97;;
61085;SDS011;46967;48.876;2.136;2023-02-23T02:00:17;10.98;;;5.00;;
61085;SDS011;46967;48.876;2.136;2023-02-23T02:02:44;9.77;;;5.18;;
61085;SDS011;46967;48.876;2.136;2023-02-23T02:05:12;12.35;;;4.85;;
61085;SDS011;46967;48.876;2.136;2023-02-23T02:07:42;13.50;;;5.15;;
61085;SDS011;46967;48.876;2.136;2023-02-23T02:10:12;11.38;;;5.50;;
61085;SDS011;46967;48.876;2.136;2023-02-23T02:12:38;8.20;;;4.90;;
61085;SDS011;46967;48.876;2.136;2023-02-23T02:15:13;13.02;;;5.45;;
61085;SDS011;46967;48.876;2.136;2023-02-23T02:21:07;9.90;;;5.53;;
61085;SDS011;46967;48.876;2.136;2023-02-23T02:29:42;13.30;;;5.70;;
61085;SDS011;46967;48.876;2.136;2023-02-23T02:43:42;8.68;;;4.55;;
61085;SDS011;46967;48.876;2.136;2023-02-23T02:46:15;9.68;;;4.45;;
61085;SDS011;46967;48.876;2.136;2023-02-23T02:54:10;9.85;;;5.20;;
61085;SDS011;46967;48.876;2.136;2023-02-23T02:56:45;9.73;;;5.07;;
61085;SDS011;46967;48.876;2.136;2023-02-23T02:59:14;9.98;;;4.20;;
61085;SDS011;46967;48.876;2.136;2023-02-23T03:01:59;7.07;;;4.00;;
61085;SDS011;46967;48.876;2.136;2023-02-23T03:04:44;12.63;;;4.80;;
61085;SDS011;46967;48.876;2.136;2023-02-23T03:07:30;12.50;;;4.00;;
61085;SDS011;46967;48.876;2.136;2023-02-23T03:19:56;14.30;;;4.53;;
61085;SDS011;46967;48.876;2.136;2023-02-23T03:22:56;12.07;;;5.18;;
61085;SDS011;46967;48.876;2.136;2023-02-23T03:26:01;7.93;;;4.18;;
61085;SDS011;46967;48.876;2.136;2023-02-23T03:32:00;7.80;;;4.53;;
61085;SDS011;46967;48.876;2.136;2023-02-23T03:34:51;6.18;;;3.38;;
61085;SDS011;46967;48.876;2.136;2023-02-23T03:37:46;7.88;;;4.20;;
61085;SDS011;46967;48.876;2.136;2023-02-23T03:40:36;10.43;;;4.28;;
61085;SDS011;46967;48.876;2.136;2023-02-23T03:43:27;9.07;;;4.00;;
61085;SDS011;46967;48.876;2.136;2023-02-23T03:46:17;9.57;;;3.85;;
61085;SDS011;46967;48.876;2.136;2023-02-23T03:49:03;7.85;;;4.20;;
61085;SDS011;46967;48.876;2.136;2023-02-23T03:51:51;8.15;;;3.70;;
61085;SDS011;46967;48.876;2.136;2023-02-23T03:54:47;9.80;;;4.03;;
61085;SDS011;46967;48.876;2.136;2023-02-23T03:57:38;10.15;;;3.97;;
61085;SDS011;46967;48.876;2.136;2023-02-23T04:00:27;10.60;;;4.07;;
61085;SDS011;46967;48.876;2.136;2023-02-23T04:03:14;9.05;;;3.78;;
61085;SDS011;46967;48.876;2.136;2023-02-23T04:06:02;7.13;;;4.00;;
61085;SDS011;46967;48.876;2.136;2023-02-23T04:08:49;6.10;;;3.33;;
61085;SDS011;46967;48.876;2.136;2023-02-23T04:11:44;11.27;;;3.83;;
61085;SDS011;46967;48.876;2.136;2023-02-23T04:14:39;11.88;;;4.13;;
61085;SDS011;46967;48.876;2.136;2023-02-23T04:17:06;11.25;;;3.47;;
61085;SDS011;46967;48.876;2.136;2023-02-23T04:19:33;14.82;;;3.92;;
61085;SDS011;46967;48.876;2.136;2023-02-23T04:21:58;10.02;;;3.70;;
61085;SDS011;46967;48.876;2.136;2023-02-23T04:24:24;10.77;;;3.53;;
61085;SDS011;46967;48.876;2.136;2023-02-23T04:26:49;12.68;;;4.38;;
61085;SDS011;46967;48.876;2.136;2023-02-23T04:29:14;12.27;;;3.63;;
61085;SDS011;46967;48.876;2.136;2023-02-23T04:31:40;8.43;;;4.00;;
61085;SDS011;46967;48.876;2.136;2023-02-23T04:34:08;13.07;;;5.50;;
61085;SDS011;46967;48.876;2.136;2023-02-23T04:36:34;11.18;;;5.88;;
61085;SDS011;46967;48.876;2.136;2023-02-23T04:39:00;9.18;;;5.05;;
61085;SDS011;46967;48.876;2.136;2023-02-23T04:41:25;11.57;;;5.03;;
61085;SDS011;46967;48.876;2.136;2023-02-23T04:43:51;12.73;;;5.15;;
61085;SDS011;46967;48.876;2.136;2023-02-23T04:46:16;11.38;;;5.05;;
61085;SDS011;46967;48.876;2.136;2023-02-23T04:48:41;10.63;;;4.80;;
61085;SDS011;46967;48.876;2.136;2023-02-23T04:51:07;14.75;;;5.70;;
61085;SDS011;46967;48.876;2.136;2023-02-23T04:53:32;12.63;;;5.75;;
61085;SDS011;46967;48.876;2.136;2023-02-23T04:55:57;15.38;;;5.78;;
61085;SDS011;46967;48.876;2.136;2023-02-23T04:58:23;10.02;;;5.38;;
61085;SDS011;46967;48.876;2.136;2023-02-23T05:00:48;19.63;;;5.75;;
61085;SDS011;46967;48.876;2.136;2023-02-23T05:03:14;14.88;;;6.93;;
61085;SDS011;46967;48.876;2.136;2023-02-23T05:05:41;18.70;;;7.00;;
61085;SDS011;46967;48.876;2.136;2023-02-23T05:08:06;21.42;;;7.38;;
61085;SDS011;46967;48.876;2.136;2023-02-23T05:10:32;13.80;;;6.88;;
61085;SDS011;46967;48.876;2.136;2023-02-23T05:12:58;14.15;;;7.07;;
61085;SDS011;46967;48.876;2.136;2023-02-23T05:15:25;10.48;;;6.78;;
61085;SDS011;46967;48.876;2.136;2023-02-23T05:17:50;12.85;;;7.10;;
61085;SDS011;46967;48.876;2.136;2023-02-23T05:20:15;17.42;;;7.82;;
61085;SDS011;46967;48.876;2.136;2023-02-23T05:22:41;12.55;;;6.53;;
61085;SDS011;46967;48.876;2.136;2023-02-23T05:25:06;12.35;;;6.93;;
61085;SDS011;46967;48.876;2.136;2023-02-23T05:27:34;13.75;;;7.40;;
61085;SDS011;46967;48.876;2.136;2023-02-23T05:30:00;13.55;;;7.47;;
61085;SDS011;46967;48.876;2.136;2023-02-23T05:32:26;13.85;;;7.63;;
61085;SDS011;46967;48.876;2.136;2023-02-23T05:34:52;14.50;;;7.30;;
61085;SDS011;46967;48.876;2.136;2023-02-23T05:37:17;11.85;;;6.95;;
61085;SDS011;46967;48.876;2.136;2023-02-23T05:39:43;12.68;;;7.05;;
61085;SDS011;46967;48.876;2.136;2023-02-23T05:42:10;16.27;;;7.40;;
61085;SDS011;46967;48.876;2.136;2023-02-23T05:44:36;15.60;;;7.43;;
61085;SDS011;46967;48.876;2.136;2023-02-23T05:47:01;15.23;;;8.10;;
61085;SDS011;46967;48.876;2.136;2023-02-23T05:49:27;12.57;;;6.78;;
61085;SDS011;46967;48.876;2.136;2023-02-23T05:51:52;13.75;;;7.20;;
61085;SDS011;46967;48.876;2.136;2023-02-23T05:54:18;13.75;;;7.22;;
61085;SDS011;46967;48.876;2.136;2023-02-23T05:56:43;11.80;;;7.55;;
61085;SDS011;46967;48.876;2.136;2023-02-23T05:59:08;13.52;;;7.00;;
61085;SDS011;46967;48.876;2.136;2023-02-23T06:01:33;10.85;;;7.07;;
61085;SDS011;46967;48.876;2.136;2023-02-23T06:03:59;13.15;;;7.05;;
61085;SDS011;46967;48.876;2.136;2023-02-23T06:06:25;11.77;;;6.93;;
61085;SDS011;46967;48.876;2.136;2023-02-23T06:08:51;13.10;;;7.28;;
61085;SDS011;46967;48.876;2.136;2023-02-23T06:11:17;11.00;;;6.43;;
61085;SDS011;46967;48.876;2.136;2023-02-23T06:13:42;16.10;;;6.95;;
61085;SDS011;46967;48.876;2.136;2023-02-23T06:16:08;12.13;;;6.88;;
61085;SDS011;46967;48.876;2.136;2023-02-23T06:18:33;9.48;;;7.05;;
61085;SDS011;46967;48.876;2.136;2023-02-23T06:20:59;14.07;;;6.75;;
61085;SDS011;46967;48.876;2.136;2023-02-23T06:23:26;10.98;;;7.05;;
61085;SDS011;46967;48.876;2.136;2023-02-23T06:25:52;14.73;;;7.18;;
61085;SDS011;46967;48.876;2.136;2023-02-23T06:28:17;14.43;;;7.45;;
61085;SDS011;46967;48.876;2.136;2023-02-23T06:30:42;12.10;;;7.45;;
61085;SDS011;46967;48.876;2.136;2023-02-23T06:33:08;13.15;;;6.72;;
61085;SDS011;46967;48.876;2.136;2023-02-23T06:35:34;12.65;;;7.18;;
61085;SDS011;46967;48.876;2.136;2023-02-23T06:37:59;12.15;;;6.78;;
61085;SDS011;46967;48.876;2.136;2023-02-23T06:40:25;15.05;;;7.85;;
61085;SDS011;46967;48.876;2.136;2023-02-23T06:42:51;12.00;;;7.35;;
61085;SDS011;46967;48.876;2.136;2023-02-23T06:45:16;11.32;;;7.25;;
61085;SDS011;46967;48.876;2.136;2023-02-23T06:47:43;14.40;;;7.25;;
61085;SDS011;46967;48.876;2.136;2023-02-23T06:50:09;10.27;;;6.45;;
61085;SDS011;46967;48.876;2.136;2023-02-23T06:52:35;13.40;;;7.45;;
61085;SDS011;46967;48.876;2.136;2023-02-23T06:55:01;11.50;;;7.53;;
61085;SDS011;46967;48.876;2.136;2023-02-23T06:57:27;11.43;;;6.70;;
61085;SDS011;46967;48.876;2.136;2023-02-23T06:59:52;15.73;;;6.78;;
61085;SDS011;46967;48.876;2.136;2023-02-23T07:02:18;12.50;;;6.68;;
61085;SDS011;46967;48.876;2.136;2023-02-23T07:04:44;13.13;;;7.78;;
61085;SDS011;46967;48.876;2.136;2023-02-23T07:07:09;13.77;;;7.43;;
61085;SDS011;46967;48.876;2.136;2023-02-23T07:09:35;15.50;;;7.60;;
61085;SDS011;46967;48.876;2.136;2023-02-23T07:12:00;14.07;;;8.07;;
61085;SDS011;46967;48.876;2.136;2023-02-23T07:14:26;13.63;;;8.48;;
61085;SDS011;46967;48.876;2.136;2023-02-23T07:16:51;10.93;;;7.45;;
61085;SDS011;46967;48.876;2.136;2023-02-23T07:19:17;11.05;;;8.07;;
61085;SDS011;46967;48.876;2.136;2023-02-23T07:21:42;14.13;;;8.43;;
61085;SDS011;46967;48.876;2.136;2023-02-23T07:24:08;15.35;;;8.88;;
61085;SDS011;46967;48.876;2.136;2023-02-23T07:26:33;17.40;;;8.40;;
61085;SDS011;46967;48.876;2.136;2023-02-23T07:28:59;16.65;;;8.70;;
61085;SDS011;46967;48.876;2.136;2023-02-23T07:31:25;14.57;;;8.85;;
61085;SDS011;46967;48.876;2.136;2023-02-23T07:33:51;14.35;;;9.38;;
61085;SDS011;46967;48.876;2.136;2023-02-23T07:36:18;14.75;;;9.07;;
61085;SDS011;46967;48.876;2.136;2023-02-23T07:38:44;16.33;;;8.95;;
61085;SDS011;46967;48.876;2.136;2023-02-23T07:41:10;15.27;;;9.18;;
61085;SDS011;46967;48.876;2.136;2023-02-23T07:43:35;14.65;;;9.57;;
61085;SDS011;46967;48.876;2.136;2023-02-23T07:46:00;15.50;;;8.63;;
61085;SDS011;46967;48.876;2.136;2023-02-23T07:48:26;14.57;;;8.63;;
61085;SDS011;46967;48.876;2.136;2023-02-23T07:50:52;15.25;;;9.10;;
61085;SDS011;46967;48.876;2.136;2023-02-23T07:53:17;14.98;;;9.05;;
61085;SDS011;46967;48.876;2.136;2023-02-23T07:55:43;16.05;;;9.60;;
61085;SDS011;46967;48.876;2.136;2023-02-23T07:58:08;16.98;;;10.18;;
61085;SDS011;46967;48.876;2.136;2023-02-23T08:00:34;13.50;;;8.90;;
61085;SDS011;46967;48.876;2.136;2023-02-23T08:03:00;16.08;;;9.85;;
61085;SDS011;46967;48.876;2.136;2023-02-23T08:05:26;14.52;;;8.82;;
61085;SDS011;46967;48.876;2.136;2023-02-23T08:07:52;14.65;;;9.10;;
61085;SDS011;46967;48.876;2.136;2023-02-23T08:10:18;13.15;;;9.50;;
61085;SDS011;46967;48.876;2.136;2023-02-23T08:12:44;17.10;;;9.85;;
61085;SDS011;46967;48.876;2.136;2023-02-23T08:15:09;14.95;;;9.40;;
61085;SDS011;46967;48.876;2.136;2023-02-23T08:17:35;15.30;;;9.75;;
61085;SDS011;46967;48.876;2.136;2023-02-23T08:20:02;17.00;;;9.48;;
61085;SDS011;46967;48.876;2.136;2023-02-23T08:22:29;19.13;;;10.05;;
61085;SDS011;46967;48.876;2.136;2023-02-23T08:24:54;16.52;;;10.40;;
61085;SDS011;46967;48.876;2.136;2023-02-23T08:27:19;19.75;;;10.27;;
61085;SDS011;46967;48.876;2.136;2023-02-23T08:29:45;22.40;;;12.25;;
61085;SDS011;46967;48.876;2.136;2023-02-23T08:32:11;16.85;;;10.77;;
61085;SDS011;46967;48.876;2.136;2023-02-23T08:34:40;15.88;;;9.50;;
61085;SDS011;46967;48.876;2.136;2023-02-23T08:37:07;17.20;;;10.07;;
61085;SDS011;46967;48.876;2.136;2023-02-23T08:39:33;17.73;;;10.23;;
61085;SDS011;46967;48.876;2.136;2023-02-23T08:41:58;15.35;;;9.82;;
61085;SDS011;46967;48.876;2.136;2023-02-23T08:44:24;15.82;;;9.52;;
61085;SDS011;46967;48.876;2.136;2023-02-23T08:46:49;17.20;;;9.77;;
61085;SDS011;46967;48.876;2.136;2023-02-23T08:49:15;15.27;;;9.75;;
61085;SDS011;46967;48.876;2.136;2023-02-23T08:51:40;20.85;;;10.52;;
61085;SDS011;46967;48.876;2.136;2023-02-23T08:54:07;19.48;;;9.77;;
61085;SDS011;46967;48.876;2.136;2023-02-23T08:56:38;16.33;;;10.05;;
61085;SDS011;46967;48.876;2.136;2023-02-23T08:59:07;20.15;;;10.95;;
61085;SDS011;46967;48.876;2.136;2023-02-23T09:01:33;14.55;;;10.30;;
61085;SDS011;46967;48.876;2.136;2023-02-23T09:03:59;19.27;;;9.68;;
61085;SDS011;46967;48.876;2.136;2023-02-23T09:06:24;16.52;;;10.13;;
61085;SDS011;46967;48.876;2.136;2023-02-23T09:08:50;14.57;;;9.90;;
61085;SDS011;46967;48.876;2.136;2023-02-23T09:11:17;16.55;;;10.15;;
61085;SDS011;46967;48.876;2.136;2023-02-23T09:13:43;20.27;;;10.20;;
61085;SDS011;46967;48.876;2.136;2023-02-23T09:16:08;15.93;;;9.93;;
61085;SDS011;46967;48.876;2.136;2023-02-23T09:18:34;15.93;;;9.68;;
61085;SDS011;46967;48.876;2.136;2023-02-23T09:21:01;19.52;;;10.45;;
61085;SDS011;46967;48.876;2.136;2023-02-23T09:23:32;18.45;;;10.65;;
61085;SDS011;46967;48.876;2.136;2023-02-23T09:26:04;19.70;;;10.10;;
61085;SDS011;46967;48.876;2.136;2023-02-23T09:28:32;15.18;;;10.15;;
61085;SDS011;46967;48.876;2.136;2023-02-23T09:31:08;16.63;;;10.50;;
61085;SDS011;46967;48.876;2.136;2023-02-23T09:33:38;17.25;;;10.65;;
61085;SDS011;46967;48.876;2.136;2023-02-23T09:36:25;18.20;;;12.00;;
61085;SDS011;46967;48.876;2.136;2023-02-23T09:38:51;16.15;;;10.43;;
61085;SDS011;46967;48.876;2.136;2023-02-23T09:41:32;20.88;;;10.93;;
61085;SDS011;46967;48.876;2.136;2023-02-23T09:44:19;18.92;;;11.23;;
61085;SDS011;46967;48.876;2.136;2023-02-23T09:49:25;14.95;;;10.15;;
61085;SDS011;46967;48.876;2.136;2023-02-23T09:54:23;16.80;;;10.47;;
61085;SDS011;46967;48.876;2.136;2023-02-23T09:56:52;17.55;;;10.85;;
61085;SDS011;46967;48.876;2.136;2023-02-23T09:59:20;17.80;;;11.00;;
61085;SDS011;46967;48.876;2.136;2023-02-23T10:01:50;23.02;;;13.68;;
61085;SDS011;46967;48.876;2.136;2023-02-23T10:12:28;22.95;;;13.48;;
61085;SDS011;46967;48.876;2.136;2023-02-23T10:20:58;21.90;;;12.52;;
61085;SDS011;46967;48.876;2.136;2023-02-23T10:23:36;19.30;;;12.75;;
61085;SDS011;46967;48.876;2.136;2023-02-23T10:26:06;17.95;;;10.63;;
61085;SDS011;46967;48.876;2.136;2023-02-23T10:28:37;19.25;;;11.55;;
61085;SDS011;46967;48.876;2.136;2023-02-23T10:31:06;16.45;;;11.02;;
61085;SDS011;46967;48.876;2.136;2023-02-23T10:33:45;22.15;;;11.18;;
61085;SDS011;46967;48.876;2.136;2023-02-23T10:36:29;18.15;;;11.85;;
61085;SDS011;46967;48.876;2.136;2023-02-23T10:38:59;25.75;;;12.70;;
61085;SDS011;46967;48.876;2.136;2023-02-23T10:41:24;15.52;;;11.32;;
61085;SDS011;46967;48.876;2.136;2023-02-23T10:43:50;18.90;;;10.23;;
61085;SDS011;46967;48.876;2.136;2023-02-23T10:46:20;14.93;;;10.43;;
61085;SDS011;46967;48.876;2.136;2023-02-23T10:48:49;15.52;;;11.05;;
61085;SDS011;46967;48.876;2.136;2023-02-23T10:51:17;17.17;;;10.23;;
61085;SDS011;46967;48.876;2.136;2023-02-23T10:53:48;16.08;;;11.00;;
61085;SDS011;46967;48.876;2.136;2023-02-23T10:56:14;18.70;;;11.05;;
61085;SDS011;46967;48.876;2.136;2023-02-23T10:58:49;19.50;;;11.73;;
61085;SDS011;46967;48.876;2.136;2023-02-23T11:06:46;15.45;;;10.48;;
61085;SDS011;46967;48.876;2.136;2023-02-23T11:09:34;20.23;;;10.35;;
61085;SDS011;46967;48.876;2.136;2023-02-23T11:12:00;21.48;;;11.43;;
61085;SDS011;46967;48.876;2.136;2023-02-23T11:14:45;17.27;;;10.52;;
61085;SDS011;46967;48.876;2.136;2023-02-23T11:17:31;16.25;;;10.75;;
61085;SDS011;46967;48.876;2.136;2023-02-23T11:19:59;19.48;;;10.43;;
61085;SDS011;46967;48.876;2.136;2023-02-23T11:22:33;18.80;;;10.68;;
61085;SDS011;46967;48.876;2.136;2023-02-23T11:25:00;17.98;;;10.95;;
61085;SDS011;46967;48.876;2.136;2023-02-23T11:27:30;13.57;;;10.13;;
61085;SDS011;46967;48.876;2.136;2023-02-23T11:29:56;12.07;;;9.05;;
61085;SDS011;46967;48.876;2.136;2023-02-23T11:32:30;12.60;;;8.57;;
61085;SDS011;46967;48.876;2.136;2023-02-23T11:37:44;16.92;;;9.63;;
61085;SDS011;46967;48.876;2.136;2023-02-23T11:42:49;12.43;;;8.32;;
61085;SDS011;46967;48.876;2.136;2023-02-23T11:45:19;13.63;;;8.45;;
61085;SDS011;46967;48.876;2.136;2023-02-23T11:47:50;12.65;;;8.55;;
61085;SDS011;46967;48.876;2.136;2023-02-23T11:52:48;14.43;;;9.02;;
61085;SDS011;46967;48.876;2.136;2023-02-23T11:55:19;12.73;;;8.73;;
61085;SDS011;46967;48.876;2.136;2023-02-23T11:57:45;16.65;;;9.90;;
61085;SDS011;46967;48.876;2.136;2023-02-23T12:00:20;16.67;;;10.52;;
61085;SDS011;46967;48.876;2.136;2023-02-23T12:02:54;20.65;;;11.05;;
61085;SDS011;46967;48.876;2.136;2023-02-23T12:05:25;20.58;;;11.63;;
61085;SDS011;46967;48.876;2.136;2023-02-23T12:07:55;19.60;;;11.93;;
61085;SDS011;46967;48.876;2.136;2023-02-23T12:10:26;17.48;;;11.40;;
61085;SDS011;46967;48.876;2.136;2023-02-23T12:21:12;16.25;;;9.63;;
61085;SDS011;46967;48.876;2.136;2023-02-23T12:23:45;13.55;;;9.10;;
61085;SDS011;46967;48.876;2.136;2023-02-23T12:26:17;13.93;;;8.82;;
61085;SDS011;46967;48.876;2.136;2023-02-23T12:31:22;15.77;;;9.57;;
61085;SDS011;46967;48.876;2.136;2023-02-23T12:34:00;15.85;;;9.77;;
61085;SDS011;46967;48.876;2.136;2023-02-23T12:36:36;14.93;;;9.88;;
61085;SDS011;46967;48.876;2.136;2023-02-23T12:39:26;14.02;;;9.43;;
61085;SDS011;46967;48.876;2.136;2023-02-23T12:41:59;17.48;;;9.07;;
61085;SDS011;46967;48.876;2.136;2023-02-23T12:44:47;12.38;;;8.40;;
61085;SDS011;46967;48.876;2.136;2023-02-23T12:49:55;12.40;;;7.85;;
61085;SDS011;46967;48.876;2.136;2023-02-23T12:52:31;13.45;;;8.05;;
61085;SDS011;46967;48.876;2.136;2023-02-23T12:55:03;11.48;;;7.50;;
61085;SDS011;46967;48.876;2.136;2023-02-23T12:57:36;12.23;;;7.90;;
61085;SDS011;46967;48.876;2.136;2023-02-23T13:14:18;10.93;;;7.43;;
61085;SDS011;46967;48.876;2.136;2023-02-23T13:16:53;9.88;;;7.18;;
61085;SDS011;46967;48.876;2.136;2023-02-23T13:19:35;11.90;;;8.13;;
61085;SDS011;46967;48.876;2.136;2023-02-23T13:25:01;13.20;;;8.63;;
61085;SDS011;46967;48.876;2.136;2023-02-23T13:27:37;17.40;;;7.55;;
61085;SDS011;46967;48.876;2.136;2023-02-23T13:30:10;10.45;;;7.93;;
61085;SDS011;46967;48.876;2.136;2023-02-23T13:32:36;11.70;;;8.00;;
61085;SDS011;46967;48.876;2.136;2023-02-23T13:41:02;12.18;;;8.30;;
61085;SDS011;46967;48.876;2.136;2023-02-23T13:51:39;10.65;;;7.18;;
61085;SDS011;46967;48.876;2.136;2023-02-23T13:56:47;12.73;;;7.72;;
61085;SDS011;46967;48.876;2.136;2023-02-23T13:59:20;11.05;;;7.38;;
61085;SDS011;46967;48.876;2.136;2023-02-23T14:01:51;12.48;;;8.18;;
61085;SDS011;46967;48.876;2.136;2023-02-23T14:04:25;12.90;;;8.27;;
61085;SDS011;46967;48.876;2.136;2023-02-23T14:09:43;11.93;;;7.45;;
61085;SDS011;46967;48.876;2.136;2023-02-23T14:13:01;12.60;;;8.45;;
61085;SDS011;46967;48.876;2.136;2023-02-23T14:17:58;17.55;;;9.73;;
61085;SDS011;46967;48.876;2.136;2023-02-23T14:25:49;12.05;;;8.95;;
61085;SDS011;46967;48.876;2.136;2023-02-23T14:36:03;15.68;;;9.15;;
61085;SDS011;46967;48.876;2.136;2023-02-23T14:41:33;13.15;;;9.43;;
61085;SDS011;46967;48.876;2.136;2023-02-23T14:44:11;12.02;;;8.80;;
61085;SDS011;46967;48.876;2.136;2023-02-23T14:46:49;12.40;;;8.93;;
61085;SDS011;46967;48.876;2.136;2023-02-23T14:49:21;16.42;;;8.93;;
61085;SDS011;46967;48.876;2.136;2023-02-23T14:51:50;14.95;;;9.05;;
61085;SDS011;46967;48.876;2.136;2023-02-23T14:54:37;13.48;;;8.63;;
61085;SDS011;46967;48.876;2.136;2023-02-23T14:57:05;15.95;;;8.82;;
61085;SDS011;46967;48.876;2.136;2023-02-23T14:59:42;13.40;;;7.88;;
61085;SDS011;46967;48.876;2.136;2023-02-23T15:02:27;14.68;;;9.20;;
61085;SDS011;46967;48.876;2.136;2023-02-23T15:04:54;11.77;;;8.07;;
61085;SDS011;46967;48.876;2.136;2023-02-23T15:07:30;11.93;;;8.20;;
61085;SDS011;46967;48.876;2.136;2023-02-23T15:09:56;12.38;;;8.40;;
61085;SDS011;46967;48.876;2.136;2023-02-23T15:12:24;12.52;;;8.23;;
61085;SDS011;46967;48.876;2.136;2023-02-23T15:15:00;11.27;;;7.82;;
61085;SDS011;46967;48.876;2.136;2023-02-23T15:17:28;11.32;;;8.15;;
61085;SDS011;46967;48.876;2.136;2023-02-23T15:20:06;12.15;;;7.13;;
61085;SDS011;46967;48.876;2.136;2023-02-23T15:22:37;10.65;;;7.00;;
61085;SDS011;46967;48.876;2.136;2023-02-23T15:25:12;10.88;;;7.15;;
61085;SDS011;46967;48.876;2.136;2023-02-23T15:27:41;11.70;;;7.03;;
61085;SDS011;46967;48.876;2.136;2023-02-23T15:35:24;10.88;;;8.00;;
61085;SDS011;46967;48.876;2.136;2023-02-23T15:37:50;13.23;;;8.32;;
61085;SDS011;46967;48.876;2.136;2023-02-23T15:40:17;10.15;;;7.30;;
61085;SDS011;46967;48.876;2.136;2023-02-23T15:42:49;12.45;;;7.45;;
61085;SDS011;46967;48.876;2.136;2023-02-23T15:45:19;11.35;;;7.80;;
61085;SDS011;46967;48.876;2.136;2023-02-23T15:47:53;11.73;;;7.07;;
61085;SDS011;46967;48.876;2.136;2023-02-23T15:50:31;10.40;;;7.63;;
61085;SDS011;46967;48.876;2.136;2023-02-23T15:53:00;11.75;;;7.95;;
61085;SDS011;46967;48.876;2.136;2023-02-23T15:55:34;16.75;;;8.00;;
61085;SDS011;46967;48.876;2.136;2023-02-23T15:58:09;12.77;;;8.40;;
61085;SDS011;46967;48.876;2.136;2023-02-23T16:00:41;12.32;;;7.03;;
61085;SDS011;46967;48.876;2.136;2023-02-23T16:03:22;10.98;;;6.82;;
61085;SDS011;46967;48.876;2.136;2023-02-23T16:08:33;13.80;;;6.38;;
61085;SDS011;46967;48.876;2.136;2023-02-23T16:11:11;11.70;;;5.78;;
61085;SDS011;46967;48.876;2.136;2023-02-23T16:16:07;8.18;;;6.10;;
61085;SDS011;46967;48.876;2.136;2023-02-23T16:18:38;8.00;;;5.63;;
61085;SDS011;46967;48.876;2.136;2023-02-23T16:21:06;8.82;;;6.05;;
61085;SDS011;46967;48.876;2.136;2023-02-23T16:23:41;10.98;;;6.20;;
61085;SDS011;46967;48.876;2.136;2023-02-23T16:26:10;9.77;;;6.38;;
61085;SDS011;46967;48.876;2.136;2023-02-23T16:28:43;8.32;;;6.18;;
61085;SDS011;46967;48.876;2.136;2023-02-23T16:31:10;8.23;;;5.78;;
61085;SDS011;46967;48.876;2.136;2023-02-23T16:33:44;10.38;;;6.40;;
61085;SDS011;46967;48.876;2.136;2023-02-23T16:36:20;8.73;;;5.80;;
61085;SDS011;46967;48.876;2.136;2023-02-23T16:38:57;10.63;;;6.93;;
61085;SDS011;46967;48.876;2.136;2023-02-23T16:41:30;8.27;;;6.32;;
61085;SDS011;46967;48.876;2.136;2023-02-23T16:44:00;9.57;;;7.13;;
61085;SDS011;46967;48.876;2.136;2023-02-23T16:46:31;9.80;;;6.32;;
61085;SDS011;46967;48.876;2.136;2023-02-23T16:49:17;11.65;;;6.82;;
61085;SDS011;46967;48.876;2.136;2023-02-23T16:51:43;10.00;;;6.47;;
61085;SDS011;46967;48.876;2.136;2023-02-23T16:54:09;9.10;;;6.18;;
61085;SDS011;46967;48.876;2.136;2023-02-23T16:56:36;7.78;;;6.20;;
61085;SDS011;46967;48.876;2.136;2023-02-23T16:59:03;10.10;;;6.43;;
61085;SDS011;46967;48.876;2.136;2023-02-23T17:01:28;7.53;;;5.93;;
61085;SDS011;46967;48.876;2.136;2023-02-23T17:03:54;9.02;;;6.80;;
61085;SDS011;46967;48.876;2.136;2023-02-23T17:06:20;9.30;;;6.72;;
61085;SDS011;46967;48.876;2.136;2023-02-23T17:08:46;10.52;;;7.05;;
61085;SDS011;46967;48.876;2.136;2023-02-23T17:11:11;9.00;;;6.57;;
61085;SDS011;46967;48.876;2.136;2023-02-23T17:13:37;10.95;;;6.82;;
61085;SDS011;46967;48.876;2.136;2023-02-23T17:16:04;9.50;;;7.25;;
61085;SDS011;46967;48.876;2.136;2023-02-23T17:18:32;11.32;;;6.75;;
61085;SDS011;46967;48.876;2.136;2023-02-23T17:21:00;9.65;;;6.47;;
61085;SDS011;46967;48.876;2.136;2023-02-23T17:23:29;10.73;;;6.53;;